sensor_id;sensor_type;location;lat;lon;timestamp;temperature;humidity
9151;DHT22;4610;50.006;7.490;2022-10-29T00:00:58;11.10;99.90
9151;DHT22;4610;50.006;7.490;2022-10-29T00:03:25;11.00;99.90
9151;DHT22;4610;50.006;7.490;2022-10-29T00:05:57;10.90;99.90
9151;DHT22;4610;50.006;7.490;2022-10-29T00:08:24;10.90;99.90
9151;DHT22;4610;50.006;7.490;2022-10-29T00:10:51;10.90;99.90
9151;DHT22;4610;50.006;7.490;2022-10-29T00:13:19;11.00;99.90
9151;DHT22;4610;50.006;7.490;2022-10-29T00:15:46;11.00;99.90
9151;DHT22;4610;50.006;7.490;2022-10-29T00:18:13;10.90;99.90
9151;DHT22;4610;50.006;7.490;2022-10-29T00:20:39;10.80;99.90
9151;DHT22;4610;50.006;7.490;2022-10-29T00:23:06;10.80;99.90
9151;DHT22;4610;50.006;7.490;2022-10-29T00:25:33;10.80;99.90
9151;DHT22;4610;50.006;7.490;2022-10-29T00:28:00;10.80;99.90
9151;DHT22;4610;50.006;7.490;2022-10-29T00:30:28;10.80;99.90
9151;DHT22;4610;50.006;7.490;2022-10-29T00:32:55;10.80;99.90
9151;DHT22;4610;50.006;7.490;2022-10-29T00:35:22;10.80;99.90
9151;DHT22;4610;50.006;7.490;2022-10-29T00:37:48;10.80;99.90
9151;DHT22;4610;50.006;7.490;2022-10-29T00:40:15;10.80;99.90
9151;DHT22;4610;50.006;7.490;2022-10-29T00:42:42;10.70;99.90
9151;DHT22;4610;50.006;7.490;2022-10-29T00:45:17;10.80;99.90
9151;DHT22;4610;50.006;7.490;2022-10-29T00:47:49;10.80;99.90
9151;DHT22;4610;50.006;7.490;2022-10-29T00:50:16;10.80;99.90
9151;DHT22;4610;50.006;7.490;2022-10-29T00:52:46;10.80;99.90
9151;DHT22;4610;50.006;7.490;2022-10-29T00:55:17;10.80;99.90
9151;DHT22;4610;50.006;7.490;2022-10-29T00:57:47;10.80;99.90
9151;DHT22;4610;50.006;7.490;2022-10-29T01:00:16;10.90;99.90
9151;DHT22;4610;50.006;7.490;2022-10-29T01:02:43;10.80;99.90
9151;DHT22;4610;50.006;7.490;2022-10-29T01:05:12;10.70;99.90
9151;DHT22;4610;50.006;7.490;2022-10-29T01:07:41;10.70;99.90
9151;DHT22;4610;50.006;7.490;2022-10-29T01:10:09;10.70;99.90
9151;DHT22;4610;50.006;7.490;2022-10-29T01:15:41;10.70;99.90
9151;DHT22;4610;50.006;7.490;2022-10-29T01:18:18;10.80;99.90
9151;DHT22;4610;50.006;7.490;2022-10-29T01:27:21;10.60;99.90
9151;DHT22;4610;50.006;7.490;2022-10-29T01:30:03;10.40;99.90
9151;DHT22;4610;50.006;7.490;2022-10-29T01:32:37;10.40;99.90
9151;DHT22;4610;50.006;7.490;2022-10-29T01:35:12;10.30;99.90
9151;DHT22;4610;50.006;7.490;2022-10-29T01:37:48;10.30;99.90
9151;DHT22;4610;50.006;7.490;2022-10-29T01:40:22;10.40;99.90
9151;DHT22;4610;50.006;7.490;2022-10-29T01:42:52;10.40;99.90
9151;DHT22;4610;50.006;7.490;2022-10-29T01:45:24;10.40;99.90
9151;DHT22;4610;50.006;7.490;2022-10-29T01:47:56;10.20;99.90
9151;DHT22;4610;50.006;7.490;2022-10-29T01:50:24;10.20;99.90
9151;DHT22;4610;50.006;7.490;2022-10-29T01:52:52;10.20;99.90
9151;DHT22;4610;50.006;7.490;2022-10-29T01:55:21;10.20;99.90
9151;DHT22;4610;50.006;7.490;2022-10-29T01:57:48;10.20;99.90
9151;DHT22;4610;50.006;7.490;2022-10-29T02:00:17;10.20;99.90
9151;DHT22;4610;50.006;7.490;2022-10-29T02:02:59;10.10;99.90
9151;DHT22;4610;50.006;7.490;2022-10-29T02:05:32;10.10;99.90
9151;DHT22;4610;50.006;7.490;2022-10-29T02:08:07;10.20;99.90
9151;DHT22;4610;50.006;7.490;2022-10-29T02:10:39;10.10;99.90
9151;DHT22;4610;50.006;7.490;2022-10-29T02:13:10;10.00;99.90
9151;DHT22;4610;50.006;7.490;2022-10-29T02:15:43;10.00;99.90
9151;DHT22;4610;50.006;7.490;2022-10-29T02:18:14;10.00;99.90
9151;DHT22;4610;50.006;7.490;2022-10-29T02:20:42;10.00;99.90
9151;DHT22;4610;50.006;7.490;2022-10-29T02:23:09;10.10;99.90
9151;DHT22;4610;50.006;7.490;2022-10-29T02:25:36;10.10;99.90
9151;DHT22;4610;50.006;7.490;2022-10-29T02:28:03;10.10;99.90
9151;DHT22;4610;50.006;7.490;2022-10-29T02:30:30;10.20;99.90
9151;DHT22;4610;50.006;7.490;2022-10-29T02:32:57;10.20;99.90
9151;DHT22;4610;50.006;7.490;2022-10-29T02:35:25;10.20;99.90
9151;DHT22;4610;50.006;7.490;2022-10-29T02:37:52;10.20;99.90
9151;DHT22;4610;50.006;7.490;2022-10-29T02:40:19;10.20;99.90
9151;DHT22;4610;50.006;7.490;2022-10-29T02:42:46;10.20;99.90
9151;DHT22;4610;50.006;7.490;2022-10-29T02:45:12;10.20;99.90
9151;DHT22;4610;50.006;7.490;2022-10-29T02:47:39;10.20;99.90
9151;DHT22;4610;50.006;7.490;2022-10-29T02:50:07;10.10;99.90
9151;DHT22;4610;50.006;7.490;2022-10-29T02:52:35;10.00;99.90
9151;DHT22;4610;50.006;7.490;2022-10-29T02:55:02;9.90;99.90
9151;DHT22;4610;50.006;7.490;2022-10-29T02:57:29;9.70;99.90
9151;DHT22;4610;50.006;7.490;2022-10-29T02:59:56;9.70;99.90
9151;DHT22;4610;50.006;7.490;2022-10-29T03:02:23;9.80;99.90
9151;DHT22;4610;50.006;7.490;2022-10-29T03:04:49;9.80;99.90
9151;DHT22;4610;50.006;7.490;2022-10-29T03:07:16;9.90;99.90
9151;DHT22;4610;50.006;7.490;2022-10-29T03:09:44;10.00;99.90
9151;DHT22;4610;50.006;7.490;2022-10-29T03:12:11;10.00;99.90
9151;DHT22;4610;50.006;7.490;2022-10-29T03:14:38;10.10;99.90
9151;DHT22;4610;50.006;7.490;2022-10-29T03:17:04;10.10;99.90
9151;DHT22;4610;50.006;7.490;2022-10-29T03:19:31;10.10;99.90
9151;DHT22;4610;50.006;7.490;2022-10-29T03:21:58;10.10;99.90
9151;DHT22;4610;50.006;7.490;2022-10-29T03:24:25;10.10;99.90
9151;DHT22;4610;50.006;7.490;2022-10-29T03:26:53;10.10;99.90
9151;DHT22;4610;50.006;7.490;2022-10-29T03:29:20;10.10;99.90
9151;DHT22;4610;50.006;7.490;2022-10-29T03:31:46;10.00;99.90
9151;DHT22;4610;50.006;7.490;2022-10-29T03:34:13;10.10;99.90
9151;DHT22;4610;50.006;7.490;2022-10-29T03:36:40;10.00;99.90
9151;DHT22;4610;50.006;7.490;2022-10-29T03:39:07;9.70;99.90
9151;DHT22;4610;50.006;7.490;2022-10-29T03:41:33;9.70;99.90
9151;DHT22;4610;50.006;7.490;2022-10-29T03:44:02;9.60;99.90
9151;DHT22;4610;50.006;7.490;2022-10-29T03:46:28;9.70;99.90
9151;DHT22;4610;50.006;7.490;2022-10-29T03:48:55;9.80;99.90
9151;DHT22;4610;50.006;7.490;2022-10-29T03:51:22;9.80;99.90
9151;DHT22;4610;50.006;7.490;2022-10-29T03:53:49;9.90;99.90
9151;DHT22;4610;50.006;7.490;2022-10-29T03:56:16;10.00;99.90
9151;DHT22;4610;50.006;7.490;2022-10-29T03:58:43;10.00;99.90
9151;DHT22;4610;50.006;7.490;2022-10-29T04:01:11;10.10;99.90
9151;DHT22;4610;50.006;7.490;2022-10-29T04:03:38;10.20;99.90
9151;DHT22;4610;50.006;7.490;2022-10-29T04:06:09;10.30;99.90
9151;DHT22;4610;50.006;7.490;2022-10-29T04:08:36;10.40;99.90
9151;DHT22;4610;50.006;7.490;2022-10-29T04:11:03;10.40;99.90
9151;DHT22;4610;50.006;7.490;2022-10-29T04:13:30;10.40;99.90
9151;DHT22;4610;50.006;7.490;2022-10-29T04:15:57;10.40;99.90
9151;DHT22;4610;50.006;7.490;2022-10-29T04:18:25;10.40;99.90
9151;DHT22;4610;50.006;7.490;2022-10-29T04:20:52;10.40;99.90
9151;DHT22;4610;50.006;7.490;2022-10-29T04:23:19;10.40;99.90
9151;DHT22;4610;50.006;7.490;2022-10-29T04:25:53;10.30;99.90
9151;DHT22;4610;50.006;7.490;2022-10-29T04:28:20;10.30;99.90
9151;DHT22;4610;50.006;7.490;2022-10-29T04:30:47;10.30;99.90
9151;DHT22;4610;50.006;7.490;2022-10-29T04:33:14;10.40;99.90
9151;DHT22;4610;50.006;7.490;2022-10-29T04:35:42;10.50;99.90
9151;DHT22;4610;50.006;7.490;2022-10-29T04:38:10;10.60;99.90
9151;DHT22;4610;50.006;7.490;2022-10-29T04:40:37;10.60;99.90
9151;DHT22;4610;50.006;7.490;2022-10-29T04:43:04;10.60;99.90
9151;DHT22;4610;50.006;7.490;2022-10-29T04:45:30;10.60;99.90
9151;DHT22;4610;50.006;7.490;2022-10-29T04:47:58;10.50;99.90
9151;DHT22;4610;50.006;7.490;2022-10-29T04:50:25;10.60;99.90
9151;DHT22;4610;50.006;7.490;2022-10-29T04:52:57;10.60;99.90
9151;DHT22;4610;50.006;7.490;2022-10-29T04:55:24;10.60;99.90
9151;DHT22;4610;50.006;7.490;2022-10-29T04:57:50;10.50;99.90
9151;DHT22;4610;50.006;7.490;2022-10-29T05:00:17;10.50;99.90
9151;DHT22;4610;50.006;7.490;2022-10-29T05:02:47;10.50;99.90
9151;DHT22;4610;50.006;7.490;2022-10-29T05:05:14;10.40;99.90
9151;DHT22;4610;50.006;7.490;2022-10-29T05:07:41;10.50;99.90
9151;DHT22;4610;50.006;7.490;2022-10-29T05:10:09;10.50;99.90
9151;DHT22;4610;50.006;7.490;2022-10-29T05:12:36;10.40;99.90
9151;DHT22;4610;50.006;7.490;2022-10-29T05:15:04;10.40;99.90
9151;DHT22;4610;50.006;7.490;2022-10-29T05:17:31;10.50;99.90
9151;DHT22;4610;50.006;7.490;2022-10-29T05:20:01;10.50;99.90
9151;DHT22;4610;50.006;7.490;2022-10-29T05:22:28;10.60;99.90
9151;DHT22;4610;50.006;7.490;2022-10-29T05:24:55;10.60;99.90
9151;DHT22;4610;50.006;7.490;2022-10-29T05:27:23;10.70;99.90
9151;DHT22;4610;50.006;7.490;2022-10-29T05:29:50;10.70;99.90
9151;DHT22;4610;50.006;7.490;2022-10-29T05:32:16;10.70;99.90
9151;DHT22;4610;50.006;7.490;2022-10-29T05:34:43;10.70;99.90
9151;DHT22;4610;50.006;7.490;2022-10-29T05:37:10;10.70;99.90
9151;DHT22;4610;50.006;7.490;2022-10-29T05:39:37;10.70;99.90
9151;DHT22;4610;50.006;7.490;2022-10-29T05:42:04;10.70;99.90
9151;DHT22;4610;50.006;7.490;2022-10-29T05:44:33;10.70;99.90
9151;DHT22;4610;50.006;7.490;2022-10-29T05:46:59;10.80;99.90
9151;DHT22;4610;50.006;7.490;2022-10-29T05:49:26;10.80;99.90
9151;DHT22;4610;50.006;7.490;2022-10-29T05:51:53;10.80;99.90
9151;DHT22;4610;50.006;7.490;2022-10-29T05:54:20;10.80;99.90
9151;DHT22;4610;50.006;7.490;2022-10-29T05:56:47;10.80;99.90
9151;DHT22;4610;50.006;7.490;2022-10-29T05:59:14;10.70;99.90
9151;DHT22;4610;50.006;7.490;2022-10-29T06:01:42;10.70;99.90
9151;DHT22;4610;50.006;7.490;2022-10-29T06:04:09;10.70;99.90
9151;DHT22;4610;50.006;7.490;2022-10-29T06:06:36;10.80;99.90
9151;DHT22;4610;50.006;7.490;2022-10-29T06:09:03;10.90;99.90
9151;DHT22;4610;50.006;7.490;2022-10-29T06:11:30;10.90;99.90
9151;DHT22;4610;50.006;7.490;2022-10-29T06:13:57;11.00;99.90
9151;DHT22;4610;50.006;7.490;2022-10-29T06:16:23;11.00;99.90
9151;DHT22;4610;50.006;7.490;2022-10-29T06:18:51;11.00;99.90
9151;DHT22;4610;50.006;7.490;2022-10-29T06:21:18;10.90;99.90
9151;DHT22;4610;50.006;7.490;2022-10-29T06:23:45;11.00;99.90
9151;DHT22;4610;50.006;7.490;2022-10-29T06:26:12;11.50;99.90
9151;DHT22;4610;50.006;7.490;2022-10-29T06:28:38;12.50;99.90
9151;DHT22;4610;50.006;7.490;2022-10-29T06:31:05;12.80;99.90
9151;DHT22;4610;50.006;7.490;2022-10-29T06:33:32;13.00;99.90
9151;DHT22;4610;50.006;7.490;2022-10-29T06:36:00;12.70;99.90
9151;DHT22;4610;50.006;7.490;2022-10-29T06:38:27;12.30;99.90
9151;DHT22;4610;50.006;7.490;2022-10-29T06:40:54;12.10;99.90
9151;DHT22;4610;50.006;7.490;2022-10-29T06:43:20;11.90;99.90
9151;DHT22;4610;50.006;7.490;2022-10-29T06:45:48;11.60;99.90
9151;DHT22;4610;50.006;7.490;2022-10-29T06:48:15;11.40;99.90
9151;DHT22;4610;50.006;7.490;2022-10-29T06:50:42;11.40;99.90
9151;DHT22;4610;50.006;7.490;2022-10-29T06:53:12;11.40;99.90
9151;DHT22;4610;50.006;7.490;2022-10-29T06:55:39;11.40;99.90
9151;DHT22;4610;50.006;7.490;2022-10-29T06:58:10;11.50;99.90
9151;DHT22;4610;50.006;7.490;2022-10-29T07:00:38;11.50;99.90
9151;DHT22;4610;50.006;7.490;2022-10-29T07:03:05;11.50;99.90
9151;DHT22;4610;50.006;7.490;2022-10-29T07:05:32;11.50;99.90
9151;DHT22;4610;50.006;7.490;2022-10-29T07:08:00;11.60;99.90
9151;DHT22;4610;50.006;7.490;2022-10-29T07:10:29;11.60;99.90
9151;DHT22;4610;50.006;7.490;2022-10-29T07:12:57;11.70;99.90
9151;DHT22;4610;50.006;7.490;2022-10-29T07:15:24;11.70;99.90
9151;DHT22;4610;50.006;7.490;2022-10-29T07:17:55;11.80;99.90
9151;DHT22;4610;50.006;7.490;2022-10-29T07:20:22;11.80;99.90
9151;DHT22;4610;50.006;7.490;2022-10-29T07:22:49;11.80;99.90
9151;DHT22;4610;50.006;7.490;2022-10-29T07:25:16;11.90;99.90
9151;DHT22;4610;50.006;7.490;2022-10-29T07:27:44;12.00;99.90
9151;DHT22;4610;50.006;7.490;2022-10-29T07:30:11;12.00;99.90
9151;DHT22;4610;50.006;7.490;2022-10-29T07:32:38;12.10;99.90
9151;DHT22;4610;50.006;7.490;2022-10-29T07:35:05;12.00;99.90
9151;DHT22;4610;50.006;7.490;2022-10-29T07:37:32;12.10;99.90
9151;DHT22;4610;50.006;7.490;2022-10-29T07:39:59;12.20;99.90
9151;DHT22;4610;50.006;7.490;2022-10-29T07:42:25;12.30;99.90
9151;DHT22;4610;50.006;7.490;2022-10-29T07:44:54;12.40;99.90
9151;DHT22;4610;50.006;7.490;2022-10-29T07:47:20;12.50;99.90
9151;DHT22;4610;50.006;7.490;2022-10-29T07:49:47;12.50;99.90
9151;DHT22;4610;50.006;7.490;2022-10-29T07:52:14;12.50;99.90
9151;DHT22;4610;50.006;7.490;2022-10-29T07:54:41;12.50;99.90
9151;DHT22;4610;50.006;7.490;2022-10-29T07:57:08;12.30;99.90
9151;DHT22;4610;50.006;7.490;2022-10-29T07:59:34;12.30;99.90
9151;DHT22;4610;50.006;7.490;2022-10-29T08:02:02;12.30;99.90
9151;DHT22;4610;50.006;7.490;2022-10-29T08:04:29;12.30;99.90
9151;DHT22;4610;50.006;7.490;2022-10-29T08:06:56;12.40;99.90
9151;DHT22;4610;50.006;7.490;2022-10-29T08:09:22;12.50;99.90
9151;DHT22;4610;50.006;7.490;2022-10-29T08:11:49;12.60;99.90
9151;DHT22;4610;50.006;7.490;2022-10-29T08:14:16;12.70;99.90
9151;DHT22;4610;50.006;7.490;2022-10-29T08:16:43;12.90;99.90
9151;DHT22;4610;50.006;7.490;2022-10-29T08:19:12;13.00;99.90
9151;DHT22;4610;50.006;7.490;2022-10-29T08:21:39;13.00;99.90
9151;DHT22;4610;50.006;7.490;2022-10-29T08:24:06;13.60;99.90
9151;DHT22;4610;50.006;7.490;2022-10-29T08:26:33;14.10;99.90
9151;DHT22;4610;50.006;7.490;2022-10-29T08:28:59;14.80;99.90
9151;DHT22;4610;50.006;7.490;2022-10-29T08:31:26;14.80;99.90
9151;DHT22;4610;50.006;7.490;2022-10-29T08:33:53;15.10;99.90
9151;DHT22;4610;50.006;7.490;2022-10-29T08:36:21;15.40;99.90
9151;DHT22;4610;50.006;7.490;2022-10-29T08:38:48;15.70;99.90
9151;DHT22;4610;50.006;7.490;2022-10-29T08:44:21;15.90;99.90
9151;DHT22;4610;50.006;7.490;2022-10-29T08:46:55;16.00;99.90
9151;DHT22;4610;50.006;7.490;2022-10-29T08:49:26;16.00;99.90
9151;DHT22;4610;50.006;7.490;2022-10-29T08:52:03;16.10;99.90
9151;DHT22;4610;50.006;7.490;2022-10-29T08:54:33;16.10;99.90
9151;DHT22;4610;50.006;7.490;2022-10-29T08:57:04;16.20;99.90
9151;DHT22;4610;50.006;7.490;2022-10-29T08:59:36;16.10;99.90
9151;DHT22;4610;50.006;7.490;2022-10-29T09:02:11;16.10;99.90
9151;DHT22;4610;50.006;7.490;2022-10-29T09:04:39;16.10;99.90
9151;DHT22;4610;50.006;7.490;2022-10-29T09:07:22;16.10;99.90
9151;DHT22;4610;50.006;7.490;2022-10-29T09:09:56;16.10;99.90
9151;DHT22;4610;50.006;7.490;2022-10-29T09:12:44;16.00;99.90
9151;DHT22;4610;50.006;7.490;2022-10-29T09:18:24;16.10;99.90
9151;DHT22;4610;50.006;7.490;2022-10-29T09:21:03;16.20;99.90
9151;DHT22;4610;50.006;7.490;2022-10-29T09:23:48;16.30;99.90
9151;DHT22;4610;50.006;7.490;2022-10-29T09:26:22;16.30;99.90
9151;DHT22;4610;50.006;7.490;2022-10-29T09:29:01;16.20;99.90
9151;DHT22;4610;50.006;7.490;2022-10-29T09:31:36;16.10;99.90
9151;DHT22;4610;50.006;7.490;2022-10-29T09:34:11;16.00;99.90
9151;DHT22;4610;50.006;7.490;2022-10-29T09:36:39;16.00;99.90
9151;DHT22;4610;50.006;7.490;2022-10-29T09:39:11;16.00;99.90
9151;DHT22;4610;50.006;7.490;2022-10-29T09:41:39;16.10;99.90
9151;DHT22;4610;50.006;7.490;2022-10-29T09:44:13;16.10;99.90
9151;DHT22;4610;50.006;7.490;2022-10-29T09:46:49;16.10;99.90
9151;DHT22;4610;50.006;7.490;2022-10-29T09:49:33;16.30;99.90
9151;DHT22;4610;50.006;7.490;2022-10-29T09:52:05;16.40;99.90
9151;DHT22;4610;50.006;7.490;2022-10-29T09:54:34;16.40;99.90
9151;DHT22;4610;50.006;7.490;2022-10-29T09:57:02;16.60;99.90
9151;DHT22;4610;50.006;7.490;2022-10-29T09:59:33;16.70;99.90
9151;DHT22;4610;50.006;7.490;2022-10-29T10:02:06;16.80;99.90
9151;DHT22;4610;50.006;7.490;2022-10-29T10:04:44;16.90;99.90
9151;DHT22;4610;50.006;7.490;2022-10-29T10:07:16;17.00;99.90
9151;DHT22;4610;50.006;7.490;2022-10-29T10:09:53;17.10;99.90
9151;DHT22;4610;50.006;7.490;2022-10-29T10:12:23;17.40;99.90
9151;DHT22;4610;50.006;7.490;2022-10-29T10:15:02;17.50;99.90
9151;DHT22;4610;50.006;7.490;2022-10-29T10:17:54;17.50;99.90
9151;DHT22;4610;50.006;7.490;2022-10-29T10:20:26;17.50;99.90
9151;DHT22;4610;50.006;7.490;2022-10-29T10:22:54;17.50;99.90
9151;DHT22;4610;50.006;7.490;2022-10-29T10:25:33;17.50;99.90
9151;DHT22;4610;50.006;7.490;2022-10-29T10:28:14;17.50;99.90
9151;DHT22;4610;50.006;7.490;2022-10-29T10:30:42;17.50;99.90
9151;DHT22;4610;50.006;7.490;2022-10-29T10:33:23;17.50;99.90
9151;DHT22;4610;50.006;7.490;2022-10-29T10:35:51;17.50;99.90
9151;DHT22;4610;50.006;7.490;2022-10-29T10:38:19;17.50;99.90
9151;DHT22;4610;50.006;7.490;2022-10-29T10:40:56;17.50;99.90
9151;DHT22;4610;50.006;7.490;2022-10-29T10:43:26;17.60;99.90
9151;DHT22;4610;50.006;7.490;2022-10-29T10:45:55;17.60;99.90
9151;DHT22;4610;50.006;7.490;2022-10-29T10:48:25;17.70;99.90
9151;DHT22;4610;50.006;7.490;2022-10-29T10:51:08;17.80;99.90
9151;DHT22;4610;50.006;7.490;2022-10-29T10:53:38;17.90;99.90
9151;DHT22;4610;50.006;7.490;2022-10-29T10:56:15;18.00;99.90
9151;DHT22;4610;50.006;7.490;2022-10-29T10:58:48;18.10;99.90
9151;DHT22;4610;50.006;7.490;2022-10-29T11:01:22;18.10;99.90
9151;DHT22;4610;50.006;7.490;2022-10-29T11:03:59;18.10;99.90
9151;DHT22;4610;50.006;7.490;2022-10-29T11:06:30;18.20;99.90
9151;DHT22;4610;50.006;7.490;2022-10-29T11:09:04;18.20;99.90
9151;DHT22;4610;50.006;7.490;2022-10-29T11:11:35;18.20;99.90
9151;DHT22;4610;50.006;7.490;2022-10-29T11:14:06;18.10;99.90
9151;DHT22;4610;50.006;7.490;2022-10-29T11:16:38;18.20;99.90
9151;DHT22;4610;50.006;7.490;2022-10-29T11:19:13;18.30;99.90
9151;DHT22;4610;50.006;7.490;2022-10-29T11:21:50;18.40;99.90
9151;DHT22;4610;50.006;7.490;2022-10-29T11:24:23;18.60;99.90
9151;DHT22;4610;50.006;7.490;2022-10-29T11:26:56;18.60;99.90
9151;DHT22;4610;50.006;7.490;2022-10-29T11:29:36;18.70;99.90
9151;DHT22;4610;50.006;7.490;2022-10-29T11:32:11;18.70;99.90
9151;DHT22;4610;50.006;7.490;2022-10-29T11:34:44;18.70;99.90
9151;DHT22;4610;50.006;7.490;2022-10-29T11:37:17;18.80;99.90
9151;DHT22;4610;50.006;7.490;2022-10-29T11:39:50;18.80;99.90
9151;DHT22;4610;50.006;7.490;2022-10-29T11:42:21;18.80;99.90
9151;DHT22;4610;50.006;7.490;2022-10-29T11:44:48;18.80;99.90
9151;DHT22;4610;50.006;7.490;2022-10-29T11:47:26;18.80;99.90
9151;DHT22;4610;50.006;7.490;2022-10-29T11:50:07;18.80;99.90
9151;DHT22;4610;50.006;7.490;2022-10-29T11:52:42;18.80;99.90
9151;DHT22;4610;50.006;7.490;2022-10-29T11:55:27;18.90;99.90
9151;DHT22;4610;50.006;7.490;2022-10-29T11:58:00;18.90;99.90
9151;DHT22;4610;50.006;7.490;2022-10-29T12:00:40;19.00;99.90
9151;DHT22;4610;50.006;7.490;2022-10-29T12:03:34;19.00;99.90
9151;DHT22;4610;50.006;7.490;2022-10-29T12:06:12;19.10;99.90
9151;DHT22;4610;50.006;7.490;2022-10-29T12:08:58;19.10;99.90
9151;DHT22;4610;50.006;7.490;2022-10-29T12:11:34;19.20;99.90
9151;DHT22;4610;50.006;7.490;2022-10-29T12:14:14;19.30;99.90
9151;DHT22;4610;50.006;7.490;2022-10-29T12:16:51;19.70;99.90
9151;DHT22;4610;50.006;7.490;2022-10-29T12:19:31;19.50;99.90
9151;DHT22;4610;50.006;7.490;2022-10-29T12:22:06;19.50;99.90
9151;DHT22;4610;50.006;7.490;2022-10-29T12:24:56;19.50;99.90
9151;DHT22;4610;50.006;7.490;2022-10-29T12:27:29;19.60;99.90
9151;DHT22;4610;50.006;7.490;2022-10-29T12:30:02;19.60;99.90
9151;DHT22;4610;50.006;7.490;2022-10-29T12:32:34;19.60;99.90
9151;DHT22;4610;50.006;7.490;2022-10-29T12:35:11;19.60;99.90
9151;DHT22;4610;50.006;7.490;2022-10-29T12:37:42;19.60;99.90
9151;DHT22;4610;50.006;7.490;2022-10-29T12:40:15;19.60;99.90
9151;DHT22;4610;50.006;7.490;2022-10-29T12:42:45;19.60;99.90
9151;DHT22;4610;50.006;7.490;2022-10-29T12:45:29;19.60;99.90
9151;DHT22;4610;50.006;7.490;2022-10-29T12:48:06;19.50;99.90
9151;DHT22;4610;50.006;7.490;2022-10-29T12:50:41;19.50;99.90
9151;DHT22;4610;50.006;7.490;2022-10-29T12:53:18;19.50;99.90
9151;DHT22;4610;50.006;7.490;2022-10-29T12:55:47;19.70;99.90
9151;DHT22;4610;50.006;7.490;2022-10-29T12:58:46;19.60;99.90
9151;DHT22;4610;50.006;7.490;2022-10-29T13:04:26;19.60;99.90
9151;DHT22;4610;50.006;7.490;2022-10-29T13:06:58;19.60;99.90
9151;DHT22;4610;50.006;7.490;2022-10-29T13:09:26;19.60;99.90
9151;DHT22;4610;50.006;7.490;2022-10-29T13:11:54;19.60;99.90
9151;DHT22;4610;50.006;7.490;2022-10-29T13:14:25;19.60;99.90
9151;DHT22;4610;50.006;7.490;2022-10-29T13:16:54;19.60;99.90
9151;DHT22;4610;50.006;7.490;2022-10-29T13:19:34;19.60;99.90
9151;DHT22;4610;50.006;7.490;2022-10-29T13:22:05;19.60;99.90
9151;DHT22;4610;50.006;7.490;2022-10-29T13:27:51;19.50;99.90
9151;DHT22;4610;50.006;7.490;2022-10-29T13:30:24;19.60;99.90
9151;DHT22;4610;50.006;7.490;2022-10-29T13:32:51;19.50;99.90
9151;DHT22;4610;50.006;7.490;2022-10-29T13:35:41;19.50;99.90
9151;DHT22;4610;50.006;7.490;2022-10-29T13:38:14;19.50;99.90
9151;DHT22;4610;50.006;7.490;2022-10-29T13:41:06;19.40;99.90
9151;DHT22;4610;50.006;7.490;2022-10-29T13:43:33;19.40;99.90
9151;DHT22;4610;50.006;7.490;2022-10-29T13:48:54;19.40;99.90
9151;DHT22;4610;50.006;7.490;2022-10-29T13:51:29;19.40;99.90
9151;DHT22;4610;50.006;7.490;2022-10-29T13:54:02;19.40;99.90
9151;DHT22;4610;50.006;7.490;2022-10-29T13:56:36;19.40;99.90
9151;DHT22;4610;50.006;7.490;2022-10-29T13:59:10;19.40;99.90
9151;DHT22;4610;50.006;7.490;2022-10-29T14:01:40;19.40;99.90
9151;DHT22;4610;50.006;7.490;2022-10-29T14:04:19;19.40;99.90
9151;DHT22;4610;50.006;7.490;2022-10-29T14:06:50;19.30;99.90
9151;DHT22;4610;50.006;7.490;2022-10-29T14:09:21;19.30;99.90
9151;DHT22;4610;50.006;7.490;2022-10-29T14:11:54;19.30;99.90
9151;DHT22;4610;50.006;7.490;2022-10-29T14:14:27;19.30;99.90
9151;DHT22;4610;50.006;7.490;2022-10-29T14:17:10;19.30;99.90
9151;DHT22;4610;50.006;7.490;2022-10-29T14:19:42;19.30;99.90
9151;DHT22;4610;50.006;7.490;2022-10-29T14:22:29;19.30;99.90
9151;DHT22;4610;50.006;7.490;2022-10-29T14:24:58;19.20;99.90
9151;DHT22;4610;50.006;7.490;2022-10-29T14:27:25;19.20;99.90
9151;DHT22;4610;50.006;7.490;2022-10-29T14:29:52;19.20;99.90
9151;DHT22;4610;50.006;7.490;2022-10-29T14:32:19;19.20;99.90
9151;DHT22;4610;50.006;7.490;2022-10-29T14:34:47;19.20;99.90
9151;DHT22;4610;50.006;7.490;2022-10-29T14:37:18;19.20;99.90
9151;DHT22;4610;50.006;7.490;2022-10-29T14:39:50;19.10;99.90
9151;DHT22;4610;50.006;7.490;2022-10-29T14:42:20;19.10;99.90
9151;DHT22;4610;50.006;7.490;2022-10-29T14:44:51;19.00;99.90
9151;DHT22;4610;50.006;7.490;2022-10-29T14:47:22;19.00;99.90
9151;DHT22;4610;50.006;7.490;2022-10-29T14:49:51;18.90;99.90
9151;DHT22;4610;50.006;7.490;2022-10-29T14:52:26;19.70;99.90
9151;DHT22;4610;50.006;7.490;2022-10-29T14:54:56;18.80;99.90
9151;DHT22;4610;50.006;7.490;2022-10-29T14:57:24;18.70;99.90
9151;DHT22;4610;50.006;7.490;2022-10-29T14:59:54;18.60;99.90
9151;DHT22;4610;50.006;7.490;2022-10-29T15:02:23;18.40;99.90
9151;DHT22;4610;50.006;7.490;2022-10-29T15:04:55;18.20;99.90
9151;DHT22;4610;50.006;7.490;2022-10-29T15:07:32;18.20;99.90
9151;DHT22;4610;50.006;7.490;2022-10-29T15:10:20;18.10;99.90
9151;DHT22;4610;50.006;7.490;2022-10-29T15:12:48;18.10;99.90
9151;DHT22;4610;50.006;7.490;2022-10-29T15:15:25;18.10;99.90
9151;DHT22;4610;50.006;7.490;2022-10-29T15:17:56;18.20;99.90
9151;DHT22;4610;50.006;7.490;2022-10-29T15:20:26;18.20;99.90
9151;DHT22;4610;50.006;7.490;2022-10-29T15:22:55;18.20;99.90
9151;DHT22;4610;50.006;7.490;2022-10-29T15:25:28;18.20;99.90
9151;DHT22;4610;50.006;7.490;2022-10-29T15:27:55;18.20;99.90
9151;DHT22;4610;50.006;7.490;2022-10-29T15:30:30;18.20;99.90
9151;DHT22;4610;50.006;7.490;2022-10-29T15:32:59;18.20;99.90
9151;DHT22;4610;50.006;7.490;2022-10-29T15:35:26;18.10;99.90
9151;DHT22;4610;50.006;7.490;2022-10-29T15:37:54;18.00;99.90
9151;DHT22;4610;50.006;7.490;2022-10-29T15:40:23;17.90;99.90
9151;DHT22;4610;50.006;7.490;2022-10-29T15:42:51;17.90;99.90
9151;DHT22;4610;50.006;7.490;2022-10-29T15:45:21;17.80;99.90
9151;DHT22;4610;50.006;7.490;2022-10-29T15:47:49;17.80;99.90
9151;DHT22;4610;50.006;7.490;2022-10-29T15:50:18;17.70;99.90
9151;DHT22;4610;50.006;7.490;2022-10-29T15:52:50;17.70;99.90
9151;DHT22;4610;50.006;7.490;2022-10-29T15:55:22;17.70;99.90
9151;DHT22;4610;50.006;7.490;2022-10-29T15:57:51;17.60;99.90
9151;DHT22;4610;50.006;7.490;2022-10-29T16:00:20;17.50;99.90
9151;DHT22;4610;50.006;7.490;2022-10-29T16:02:48;17.50;99.90
9151;DHT22;4610;50.006;7.490;2022-10-29T16:05:15;17.50;99.90
9151;DHT22;4610;50.006;7.490;2022-10-29T16:07:43;17.40;99.90
9151;DHT22;4610;50.006;7.490;2022-10-29T16:10:17;17.40;99.90
9151;DHT22;4610;50.006;7.490;2022-10-29T16:12:44;17.40;99.90
9151;DHT22;4610;50.006;7.490;2022-10-29T16:15:17;17.30;99.90
9151;DHT22;4610;50.006;7.490;2022-10-29T16:17:45;17.20;99.90
9151;DHT22;4610;50.006;7.490;2022-10-29T16:20:14;17.20;99.90
9151;DHT22;4610;50.006;7.490;2022-10-29T16:22:41;17.20;99.90
9151;DHT22;4610;50.006;7.490;2022-10-29T16:25:20;17.10;99.90
9151;DHT22;4610;50.006;7.490;2022-10-29T16:27:47;16.30;99.90
9151;DHT22;4610;50.006;7.490;2022-10-29T16:30:16;17.10;99.90
9151;DHT22;4610;50.006;7.490;2022-10-29T16:32:43;17.10;99.90
9151;DHT22;4610;50.006;7.490;2022-10-29T16:35:16;17.10;99.90
9151;DHT22;4610;50.006;7.490;2022-10-29T16:37:44;16.90;99.90
9151;DHT22;4610;50.006;7.490;2022-10-29T16:40:11;16.80;99.90
9151;DHT22;4610;50.006;7.490;2022-10-29T16:42:38;16.70;99.90
9151;DHT22;4610;50.006;7.490;2022-10-29T16:45:07;16.60;99.90
9151;DHT22;4610;50.006;7.490;2022-10-29T16:47:36;16.60;99.90